createdAt,value
2019-05-29T00:01:21.821Z,32.63
2019-05-29T00:03:52.116Z,32.88
2019-05-29T00:06:22.341Z,33.23
2019-05-29T00:08:52.590Z,31.48
2019-05-29T00:11:22.808Z,30.25
2019-05-29T00:13:55.082Z,29.55
2019-05-29T00:16:25.395Z,29.55
2019-05-29T00:18:58.364Z,29.30
2019-05-29T00:21:29.231Z,29.35
2019-05-29T00:23:59.541Z,33.75
2019-05-29T00:26:32.763Z,31.62
2019-05-29T00:29:03.115Z,29.87
2019-05-29T00:31:33.349Z,30.10
2019-05-29T00:34:03.660Z,29.30
2019-05-29T00:36:34.511Z,31.70
2019-05-29T00:39:08.656Z,29.72
2019-05-29T00:41:39.320Z,29.85
2019-05-29T00:44:09.915Z,30.57
2019-05-29T00:46:40.221Z,30.50
2019-05-29T00:49:11.778Z,31.55
2019-05-29T00:51:42.672Z,31.52
2019-05-29T00:54:14.427Z,30.43
2019-05-29T00:56:44.872Z,30.77
2019-05-29T00:59:15.582Z,30.70
2019-05-29T01:01:47.166Z,28.73
2019-05-29T01:04:17.933Z,30.23
2019-05-29T01:06:48.225Z,29.55
2019-05-29T01:09:18.658Z,27.93
2019-05-29T01:11:49.072Z,27.17
2019-05-29T01:14:19.470Z,26.55
2019-05-29T01:16:49.994Z,24.60
2019-05-29T01:19:26.009Z,26.05
2019-05-29T01:21:57.109Z,24.98
2019-05-29T01:24:27.967Z,21.77
2019-05-29T01:26:59.539Z,22.42
2019-05-29T01:29:29.785Z,19.50
2019-05-29T01:31:59.994Z,19.60
2019-05-29T01:34:30.231Z,19.25
2019-05-29T01:37:00.449Z,19.70
2019-05-29T01:39:30.690Z,19.57
2019-05-29T01:42:00.983Z,18.65
2019-05-29T01:44:31.199Z,20.00
2019-05-29T01:47:01.418Z,18.20
2019-05-29T01:49:31.709Z,17.20
2019-05-29T01:52:02.097Z,17.50
2019-05-29T01:54:32.329Z,17.50
2019-05-29T01:57:02.545Z,15.98
2019-05-29T01:59:32.763Z,16.25
2019-05-29T02:02:03.010Z,17.23
2019-05-29T02:04:33.211Z,16.95
2019-05-29T02:07:03.467Z,17.92
2019-05-29T02:09:33.704Z,17.10
2019-05-29T02:12:04.049Z,17.57
2019-05-29T02:14:34.404Z,17.75
2019-05-29T02:17:04.740Z,17.90
2019-05-29T02:19:34.952Z,16.17
2019-05-29T02:22:05.361Z,17.50
2019-05-29T02:24:35.931Z,18.67
2019-05-29T02:27:06.589Z,17.75
2019-05-29T02:29:37.322Z,18.05
2019-05-29T02:32:07.655Z,17.40
2019-05-29T02:34:38.133Z,17.00
2019-05-29T02:37:08.409Z,19.65
2019-05-29T02:39:38.997Z,18.82
2019-05-29T02:42:09.959Z,19.10
2019-05-29T02:44:40.335Z,21.95
2019-05-29T02:47:10.599Z,28.12
2019-05-29T02:49:40.814Z,22.93
2019-05-29T02:52:11.381Z,20.60
2019-05-29T02:54:41.674Z,17.10
2019-05-29T02:57:11.913Z,14.60
2019-05-29T02:59:42.139Z,13.50
2019-05-29T03:02:12.379Z,12.35
2019-05-29T03:04:42.649Z,11.65
2019-05-29T03:07:13.057Z,11.60
2019-05-29T03:09:44.060Z,11.22
2019-05-29T03:12:14.666Z,11.12
2019-05-29T03:14:45.010Z,10.53
2019-05-29T03:17:15.586Z,12.10
2019-05-29T03:19:47.241Z,11.38
2019-05-29T03:22:17.840Z,11.48
2019-05-29T03:24:48.504Z,10.10
2019-05-29T03:27:19.157Z,10.32
2019-05-29T03:29:49.385Z,9.23
2019-05-29T03:32:19.653Z,8.65
2019-05-29T03:34:49.888Z,8.28
2019-05-29T03:37:20.111Z,8.18
2019-05-29T03:39:50.344Z,6.83
2019-05-29T03:42:20.573Z,6.42
2019-05-29T03:44:50.781Z,5.58
2019-05-29T03:47:21.077Z,6.83
2019-05-29T03:49:51.454Z,6.65
2019-05-29T03:52:21.668Z,7.25
2019-05-29T03:54:52.284Z,6.95
2019-05-29T03:57:22.932Z,6.28
2019-05-29T03:59:53.464Z,6.55
2019-05-29T04:02:24.370Z,6.22
2019-05-29T04:04:54.951Z,6.53
2019-05-29T04:07:26.848Z,6.62
2019-05-29T04:09:57.544Z,5.92
2019-05-29T04:12:29.487Z,6.45
2019-05-29T04:15:01.367Z,6.58
2019-05-29T04:17:35.539Z,6.33
2019-05-29T04:20:08.531Z,6.75
2019-05-29T04:22:45.486Z,6.03
2019-05-29T04:25:16.778Z,6.10
2019-05-29T04:27:51.571Z,4.37
2019-05-29T04:30:21.899Z,4.60
2019-05-29T04:32:52.190Z,4.35
2019-05-29T04:35:22.417Z,3.22
2019-05-29T04:37:53.035Z,4.00
2019-05-29T04:40:23.520Z,3.58
2019-05-29T04:42:53.746Z,3.30
2019-05-29T04:45:24.388Z,3.90
2019-05-29T04:47:54.824Z,3.58
2019-05-29T04:50:25.408Z,3.10
2019-05-29T04:52:56.063Z,3.08
2019-05-29T04:55:26.375Z,2.55
2019-05-29T04:57:56.589Z,2.40
2019-05-29T05:00:27.151Z,2.25
2019-05-29T05:02:57.445Z,2.10
2019-05-29T05:05:29.059Z,2.12
2019-05-29T05:07:59.812Z,2.27
2019-05-29T05:10:41.926Z,1.92
2019-05-29T05:13:12.686Z,2.10
2019-05-29T05:15:45.223Z,2.22
2019-05-29T05:18:15.774Z,2.12
2019-05-29T05:20:46.031Z,2.72
2019-05-29T05:23:16.615Z,2.52
2019-05-29T05:25:47.648Z,3.42
2019-05-29T05:28:18.501Z,4.08
2019-05-29T05:30:49.154Z,4.33
2019-05-29T05:33:19.577Z,4.17
2019-05-29T05:35:49.884Z,3.67
2019-05-29T05:38:20.135Z,4.17
2019-05-29T05:40:50.616Z,4.85
2019-05-29T05:43:24.015Z,4.10
2019-05-29T05:45:52.801Z,3.75
2019-05-29T05:48:23.417Z,4.05
2019-05-29T05:50:53.712Z,4.10
2019-05-29T05:53:24.292Z,2.98
2019-05-29T05:55:55.059Z,3.58
2019-05-29T05:58:25.695Z,3.22
2019-05-29T06:00:55.985Z,3.02
2019-05-29T06:03:26.574Z,2.83
2019-05-29T06:05:56.879Z,2.77
2019-05-29T06:08:27.628Z,2.98
2019-05-29T06:10:58.256Z,2.83
2019-05-29T06:13:28.898Z,2.50
2019-05-29T06:15:59.203Z,2.55
2019-05-29T06:18:29.668Z,2.62
2019-05-29T06:20:59.906Z,2.20
2019-05-29T06:23:30.215Z,2.20
2019-05-29T06:26:00.432Z,2.30
2019-05-29T06:28:30.704Z,2.62
2019-05-29T06:31:00.927Z,2.62
2019-05-29T06:33:33.419Z,2.50
2019-05-29T06:36:04.418Z,2.75
2019-05-29T06:38:35.583Z,2.92
2019-05-29T06:41:06.395Z,2.90
2019-05-29T06:43:37.851Z,2.90
2019-05-29T06:46:08.311Z,3.30
2019-05-29T06:48:46.284Z,3.50
2019-05-29T06:51:10.563Z,3.33
2019-05-29T06:53:41.768Z,3.30
2019-05-29T06:56:12.252Z,3.42
2019-05-29T06:58:42.445Z,3.37
2019-05-29T07:01:12.684Z,3.80
2019-05-29T07:03:44.038Z,3.42
2019-05-29T07:06:15.063Z,3.55
2019-05-29T07:08:49.706Z,4.00
2019-05-29T07:11:18.390Z,4.80
2019-05-29T07:13:50.542Z,4.72
2019-05-29T07:16:21.721Z,4.40
2019-05-29T07:19:24.006Z,4.22
2019-05-29T07:21:23.989Z,3.60
2019-05-29T07:23:54.208Z,4.87
2019-05-29T07:26:24.741Z,4.00
2019-05-29T07:29:07.019Z,3.85
2019-05-29T07:31:27.333Z,4.28
2019-05-29T07:33:57.574Z,3.87
2019-05-29T07:36:27.837Z,4.00
2019-05-29T07:39:03.570Z,3.98
2019-05-29T07:41:30.722Z,2.92
2019-05-29T07:44:01.018Z,3.72
2019-05-29T07:46:31.681Z,3.33
2019-05-29T07:49:01.905Z,3.40
2019-05-29T07:51:32.124Z,3.37
2019-05-29T07:54:02.762Z,3.40
2019-05-29T07:56:33.116Z,4.00
2019-05-29T07:59:03.779Z,3.85
2019-05-29T08:01:34.245Z,3.50
2019-05-29T08:04:04.606Z,3.20
2019-05-29T08:06:35.295Z,3.70
2019-05-29T08:09:08.430Z,4.30
2019-05-29T08:11:39.510Z,3.52
2019-05-29T08:14:10.454Z,3.90
2019-05-29T08:16:41.917Z,3.30
2019-05-29T08:19:13.484Z,4.70
2019-05-29T08:21:44.305Z,4.10
2019-05-29T08:24:15.546Z,4.28
2019-05-29T08:26:47.170Z,4.20
2019-05-29T08:29:17.455Z,4.10
2019-05-29T08:31:48.851Z,3.80
2019-05-29T08:34:19.832Z,3.80
2019-05-29T08:37:06.018Z,4.67
2019-05-29T08:39:35.191Z,3.70
2019-05-29T08:42:21.236Z,3.40
2019-05-29T08:44:28.297Z,3.87
2019-05-29T08:47:09.579Z,4.08
2019-05-29T08:49:30.804Z,3.75
2019-05-29T08:52:11.107Z,3.90
2019-05-29T08:54:33.162Z,4.20
2019-05-29T08:57:03.486Z,4.00
2019-05-29T08:59:33.702Z,3.22
2019-05-29T09:02:03.961Z,3.77
2019-05-29T09:04:34.178Z,3.10
2019-05-29T09:07:04.843Z,3.70
2019-05-29T09:09:35.094Z,2.95
2019-05-29T09:12:05.837Z,3.00
2019-05-29T09:14:36.501Z,3.27
2019-05-29T09:17:07.272Z,2.70
2019-05-29T09:19:37.663Z,3.10
2019-05-29T09:22:08.834Z,2.83
2019-05-29T09:24:39.429Z,2.60
2019-05-29T09:27:10.064Z,2.50
2019-05-29T09:29:40.431Z,2.10
2019-05-29T09:32:10.643Z,2.40
2019-05-29T09:34:40.885Z,2.10
2019-05-29T09:37:11.218Z,2.52
2019-05-29T09:39:41.481Z,2.02
2019-05-29T09:42:11.780Z,2.22
2019-05-29T09:44:41.926Z,2.02
2019-05-29T09:47:12.245Z,1.80
2019-05-29T09:49:42.820Z,2.15
2019-05-29T09:52:13.466Z,2.20
2019-05-29T09:54:45.104Z,2.15
2019-05-29T09:57:15.565Z,2.27
2019-05-29T09:59:46.054Z,3.02
2019-05-29T10:02:16.616Z,3.15
2019-05-29T10:04:47.277Z,2.47
2019-05-29T10:07:17.829Z,1.90
2019-05-29T10:09:48.102Z,2.45
2019-05-29T10:12:18.322Z,2.35
2019-05-29T10:14:51.283Z,2.60
2019-05-29T10:17:20.944Z,2.40
2019-05-29T10:19:51.244Z,2.52
2019-05-29T10:22:21.472Z,2.80
2019-05-29T10:24:53.416Z,2.20
2019-05-29T10:27:23.649Z,2.50
2019-05-29T10:29:54.337Z,2.40
2019-05-29T10:32:24.797Z,2.50
2019-05-29T10:34:55.039Z,2.40
2019-05-29T10:37:26.444Z,2.90
2019-05-29T10:39:57.061Z,2.60
2019-05-29T10:42:27.740Z,2.40
2019-05-29T10:44:58.407Z,3.12
2019-05-29T10:47:28.686Z,1.90
2019-05-29T10:49:58.919Z,2.30
2019-05-29T10:52:29.151Z,2.40
2019-05-29T10:54:59.436Z,2.37
2019-05-29T10:57:30.015Z,1.90
2019-05-29T11:00:00.321Z,1.90
2019-05-29T11:02:30.902Z,2.35
2019-05-29T11:05:01.188Z,2.60
2019-05-29T11:07:31.438Z,2.80
2019-05-29T11:10:01.677Z,2.42
2019-05-29T11:12:31.976Z,3.05
2019-05-29T11:15:19.876Z,2.98
2019-05-29T11:17:34.569Z,3.60
2019-05-29T11:20:07.980Z,3.77
2019-05-29T11:22:38.497Z,2.72
2019-05-29T11:25:22.530Z,2.62
2019-05-29T11:27:42.073Z,2.85
2019-05-29T11:30:14.361Z,2.45
2019-05-29T11:32:47.482Z,2.80
2019-05-29T11:35:16.855Z,2.35
2019-05-29T11:37:47.085Z,2.60
2019-05-29T11:40:17.839Z,2.87
2019-05-29T11:42:48.142Z,2.75
2019-05-29T11:45:19.720Z,2.30
2019-05-29T11:47:54.074Z,2.42
2019-05-29T11:52:54.402Z,2.98
2019-05-29T11:55:25.823Z,2.65
2019-05-29T11:57:56.425Z,2.50
2019-05-29T12:00:27.793Z,3.00
2019-05-29T12:02:59.563Z,2.62
2019-05-29T12:05:30.311Z,2.77
2019-05-29T12:08:01.865Z,2.83
2019-05-29T12:10:32.333Z,2.60
2019-05-29T12:13:02.692Z,2.47
2019-05-29T12:15:32.912Z,2.83
2019-05-29T12:18:21.908Z,2.90
2019-05-29T12:20:35.515Z,2.52
2019-05-29T12:23:22.949Z,2.33
2019-05-29T12:25:38.582Z,2.65
2019-05-29T12:28:08.993Z,2.02
2019-05-29T12:30:41.176Z,3.37
2019-05-29T12:33:11.468Z,3.00
2019-05-29T12:35:42.059Z,2.62
2019-05-29T12:38:12.385Z,2.08
2019-05-29T12:40:43.097Z,2.17
2019-05-29T12:43:26.581Z,2.30
2019-05-29T12:45:45.694Z,2.35
2019-05-29T12:48:16.592Z,2.40
2019-05-29T12:50:47.634Z,2.30
2019-05-29T12:53:29.720Z,2.40
2019-05-29T12:55:50.659Z,2.92
2019-05-29T12:58:20.960Z,2.00
2019-05-29T13:00:51.857Z,2.35
2019-05-29T13:03:22.366Z,2.15
2019-05-29T13:05:52.565Z,1.98
2019-05-29T13:08:23.136Z,1.95
2019-05-29T13:10:54.242Z,1.82
2019-05-29T13:13:24.782Z,1.75
2019-05-29T13:15:54.995Z,1.57
2019-05-29T13:18:25.226Z,2.30
2019-05-29T13:20:58.927Z,2.10
2019-05-29T13:23:44.317Z,1.95
2019-05-29T13:26:02.000Z,1.87
2019-05-29T13:28:32.284Z,2.20
2019-05-29T13:31:04.379Z,1.70
2019-05-29T13:33:36.599Z,2.15
2019-05-29T13:36:07.273Z,1.82
2019-05-29T13:38:37.922Z,2.00
2019-05-29T13:41:08.713Z,1.85
2019-05-29T13:43:39.336Z,1.87
2019-05-29T13:46:09.718Z,2.05
2019-05-29T13:48:39.934Z,2.70
2019-05-29T13:51:10.240Z,2.70
2019-05-29T13:53:40.806Z,2.08
2019-05-29T13:56:11.355Z,1.98
2019-05-29T13:58:41.676Z,2.10
2019-05-29T14:01:11.943Z,2.95
2019-05-29T14:03:42.163Z,1.37
2019-05-29T14:06:15.122Z,2.40
2019-05-29T14:08:45.341Z,2.80
2019-05-29T14:11:15.567Z,1.80
2019-05-29T14:13:46.227Z,2.30
2019-05-29T14:16:16.937Z,1.90
2019-05-29T14:18:47.388Z,1.90
2019-05-29T14:21:18.170Z,2.17
2019-05-29T14:23:48.954Z,2.30
2019-05-29T14:26:19.655Z,1.87
2019-05-29T14:28:50.291Z,1.80
2019-05-29T14:31:21.054Z,1.62
2019-05-29T14:33:51.356Z,2.00
2019-05-29T14:36:21.641Z,2.15
2019-05-29T14:38:51.829Z,2.00
2019-05-29T14:41:22.127Z,2.22
2019-05-29T14:43:52.722Z,1.82
2019-05-29T14:46:23.200Z,2.15
2019-05-29T14:48:53.882Z,1.80
2019-05-29T14:51:24.231Z,1.70
2019-05-29T14:53:56.851Z,2.15
2019-05-29T14:56:27.032Z,1.65
2019-05-29T14:58:57.381Z,1.65
2019-05-29T15:01:27.622Z,1.98
2019-05-29T15:03:58.055Z,2.20
2019-05-29T15:06:28.398Z,2.17
2019-05-29T15:08:58.660Z,2.35
2019-05-29T15:11:28.902Z,1.80
2019-05-29T15:13:59.157Z,2.08
2019-05-29T15:16:29.607Z,1.72
2019-05-29T15:19:00.176Z,2.17
2019-05-29T15:21:30.464Z,2.00
2019-05-29T15:24:02.209Z,2.25
2019-05-29T15:26:32.825Z,2.60
2019-05-29T15:29:03.673Z,2.20
2019-05-29T15:31:33.951Z,2.12
2019-05-29T15:34:04.255Z,1.75
2019-05-29T15:36:34.548Z,1.95
2019-05-29T15:39:10.675Z,1.90
2019-05-29T15:41:40.962Z,2.15
2019-05-29T15:44:12.743Z,2.10
2019-05-29T15:46:43.345Z,2.15
2019-05-29T15:49:15.227Z,2.20
2019-05-29T15:51:45.682Z,1.55
2019-05-29T15:54:17.389Z,1.50
2019-05-29T15:56:47.842Z,2.60
2019-05-29T15:59:19.113Z,2.00
2019-05-29T16:01:49.559Z,1.55
2019-05-29T16:04:19.775Z,1.90
2019-05-29T16:06:50.352Z,1.72
2019-05-29T16:09:21.006Z,2.00
2019-05-29T16:11:51.339Z,1.60
2019-05-29T16:14:21.620Z,1.67
2019-05-29T16:16:52.409Z,2.55
2019-05-29T16:19:22.787Z,3.00
2019-05-29T16:21:53.590Z,2.25
2019-05-29T16:24:24.225Z,1.50
2019-05-29T16:27:07.979Z,3.87
2019-05-29T16:29:27.450Z,1.90
2019-05-29T16:31:57.672Z,1.80
2019-05-29T16:34:27.906Z,1.75
2019-05-29T16:36:58.155Z,1.80
2019-05-29T16:39:28.922Z,1.80
2019-05-29T16:41:59.266Z,1.80
2019-05-29T16:44:29.693Z,2.10
2019-05-29T16:46:59.995Z,1.70
2019-05-29T16:49:30.568Z,2.00
2019-05-29T16:52:01.221Z,2.55
2019-05-29T16:54:31.505Z,2.67
2019-05-29T16:57:02.090Z,3.08
2019-05-29T16:59:32.795Z,2.40
2019-05-29T17:02:03.120Z,2.10
2019-05-29T17:04:33.778Z,1.75
2019-05-29T17:07:04.156Z,2.20
2019-05-29T17:09:34.448Z,2.25
2019-05-29T17:12:04.922Z,2.00
2019-05-29T17:14:35.553Z,1.90
2019-05-29T17:17:05.830Z,2.75
2019-05-29T17:19:36.837Z,2.35
2019-05-29T17:22:08.211Z,2.10
2019-05-29T17:24:40.231Z,2.52
2019-05-29T17:27:10.622Z,2.08
2019-05-29T17:29:40.913Z,2.65
2019-05-29T17:32:11.553Z,2.27
2019-05-29T17:34:42.298Z,2.42
2019-05-29T17:37:12.967Z,2.10
2019-05-29T17:39:43.259Z,2.83
2019-05-29T17:42:16.036Z,2.27
2019-05-29T17:44:46.194Z,2.10
2019-05-29T17:47:17.748Z,2.50
2019-05-29T17:49:48.945Z,2.30
2019-05-29T17:52:19.797Z,2.33
2019-05-29T17:54:50.293Z,2.70
2019-05-29T17:57:20.525Z,3.85
2019-05-29T17:59:50.857Z,5.50
2019-05-29T18:02:22.216Z,4.45
2019-05-29T18:04:53.258Z,3.00
2019-05-29T18:07:24.783Z,3.55
2019-05-29T18:09:55.583Z,3.37
2019-05-29T18:12:26.965Z,3.33
2019-05-29T18:14:57.648Z,3.20
2019-05-29T18:17:31.929Z,3.55
2019-05-29T18:20:02.807Z,2.92
2019-05-29T18:22:33.052Z,3.40
2019-05-29T18:25:03.865Z,3.10
2019-05-29T18:27:34.890Z,2.90
2019-05-29T18:30:07.575Z,3.02
2019-05-29T18:32:38.331Z,3.20
2019-05-29T18:35:10.177Z,3.00
2019-05-29T18:37:40.488Z,3.17
2019-05-29T18:40:12.613Z,2.72
2019-05-29T18:42:43.104Z,2.83
2019-05-29T18:45:21.016Z,2.90
2019-05-29T18:47:47.841Z,4.53
2019-05-29T18:50:19.191Z,3.08
2019-05-29T18:52:49.983Z,3.92
2019-05-29T18:55:20.849Z,4.65
2019-05-29T18:57:51.198Z,3.33
2019-05-29T19:00:23.718Z,2.67
2019-05-29T19:02:54.416Z,2.50
2019-05-29T19:05:25.616Z,2.20
2019-05-29T19:07:56.113Z,2.25
2019-05-29T19:10:27.796Z,2.30
2019-05-29T19:12:58.339Z,2.17
2019-05-29T19:15:28.579Z,2.62
2019-05-29T19:17:59.169Z,2.60
2019-05-29T19:20:30.510Z,2.37
2019-05-29T19:23:04.104Z,2.22
2019-05-29T19:25:34.429Z,2.42
2019-05-29T19:28:05.035Z,2.27
2019-05-29T19:30:35.881Z,2.80
2019-05-29T19:33:06.249Z,2.60
2019-05-29T19:35:36.472Z,3.08
2019-05-29T19:38:07.090Z,3.20
2019-05-29T19:40:37.493Z,2.75
2019-05-29T19:43:07.730Z,3.22
2019-05-29T19:45:38.082Z,3.02
2019-05-29T19:48:08.246Z,3.33
2019-05-29T19:50:38.478Z,3.65
2019-05-29T19:53:08.778Z,3.10
2019-05-29T19:55:40.524Z,2.85
2019-05-29T19:58:10.836Z,4.17
2019-05-29T20:00:41.476Z,2.85
2019-05-29T20:03:12.509Z,3.33
2019-05-29T20:05:43.308Z,2.92
2019-05-29T20:08:13.599Z,2.52
2019-05-29T20:10:44.020Z,3.08
2019-05-29T20:13:14.592Z,2.50
2019-05-29T20:15:46.005Z,2.50
2019-05-29T20:18:16.604Z,2.80
2019-05-29T20:20:47.086Z,2.47
2019-05-29T20:23:17.336Z,2.50
2019-05-29T20:25:47.581Z,2.80
2019-05-29T20:28:18.209Z,2.47
2019-05-29T20:30:48.890Z,2.80
2019-05-29T20:33:19.520Z,2.62
2019-05-29T20:35:50.211Z,2.50
2019-05-29T20:38:20.518Z,3.35
2019-05-29T20:40:50.739Z,2.35
2019-05-29T20:43:20.999Z,2.85
2019-05-29T20:45:51.583Z,2.37
2019-05-29T20:48:22.615Z,2.12
2019-05-29T20:50:53.403Z,2.45
2019-05-29T20:53:25.156Z,3.10
2019-05-29T20:55:55.705Z,2.58
2019-05-29T20:58:25.926Z,2.90
2019-05-29T21:00:56.518Z,2.83
2019-05-29T21:03:27.040Z,3.08
2019-05-29T21:05:57.261Z,3.00
2019-05-29T21:08:29.204Z,2.50
2019-05-29T21:10:59.439Z,2.45
2019-05-29T21:13:30.118Z,2.60
2019-05-29T21:16:00.822Z,2.10
2019-05-29T21:18:31.038Z,2.42
2019-05-29T21:21:01.779Z,2.77
2019-05-29T21:23:32.404Z,2.52
2019-05-29T21:26:02.761Z,3.15
2019-05-29T21:28:40.816Z,2.67
2019-05-29T21:31:06.001Z,2.22
2019-05-29T21:33:37.693Z,2.65
2019-05-29T21:36:08.279Z,2.42
2019-05-29T21:38:40.087Z,3.10
2019-05-29T21:41:11.013Z,2.42
2019-05-29T21:43:41.284Z,2.58
2019-05-29T21:46:11.676Z,2.30
2019-05-29T21:48:43.366Z,2.92
2019-05-29T21:51:13.836Z,3.15
2019-05-29T21:53:44.090Z,2.75
2019-05-29T21:56:14.312Z,3.15
2019-05-29T21:59:00.224Z,3.00
2019-05-29T22:01:16.550Z,3.08
2019-05-29T22:03:46.881Z,2.70
2019-05-29T22:06:20.132Z,2.98
2019-05-29T22:08:50.329Z,2.50
2019-05-29T22:11:20.544Z,3.05
2019-05-29T22:13:50.756Z,2.60
2019-05-29T22:16:21.310Z,2.40
2019-05-29T22:18:52.814Z,2.52
2019-05-29T22:21:23.193Z,2.40
2019-05-29T22:23:53.443Z,2.60
2019-05-29T22:26:24.016Z,2.47
2019-05-29T22:28:55.209Z,2.35
2019-05-29T22:31:25.907Z,2.80
2019-05-29T22:33:57.451Z,2.40
2019-05-29T22:36:29.316Z,2.20
2019-05-29T22:38:59.684Z,2.37
2019-05-29T22:41:29.897Z,2.58
2019-05-29T22:44:00.144Z,2.30
2019-05-29T22:46:30.760Z,2.40
2019-05-29T22:49:02.056Z,2.60
2019-05-29T22:51:32.710Z,2.55
2019-05-29T22:54:03.293Z,2.30
2019-05-29T22:56:34.928Z,2.17
2019-05-29T22:59:05.609Z,2.67
2019-05-29T23:01:36.246Z,2.77
2019-05-29T23:04:06.552Z,2.72
2019-05-29T23:06:36.792Z,3.12
2019-05-29T23:09:08.619Z,2.65
2019-05-29T23:11:38.965Z,2.95
2019-05-29T23:14:09.202Z,2.80
2019-05-29T23:16:39.783Z,3.20
2019-05-29T23:19:10.264Z,3.00
2019-05-29T23:21:40.583Z,3.15
2019-05-29T23:24:11.176Z,2.58
2019-05-29T23:26:41.920Z,2.40
2019-05-29T23:29:12.581Z,2.55
2019-05-29T23:31:43.209Z,2.60
2019-05-29T23:34:13.844Z,2.90
2019-05-29T23:36:44.130Z,3.27
2019-05-29T23:39:14.371Z,3.30
2019-05-29T23:41:44.573Z,2.90
2019-05-29T23:44:14.851Z,2.90
2019-05-29T23:46:45.782Z,2.80
2019-05-29T23:49:16.416Z,2.98
2019-05-29T23:51:46.689Z,3.00
2019-05-29T23:54:17.277Z,2.90
2019-05-29T23:56:47.908Z,3.17
2019-05-29T23:59:18.201Z,3.05
